sensor_id;sensor_type;location;lat;lon;timestamp;P1;durP1;ratioP1;P2;durP2;ratioP2
72974;SDS011;61166;54.228;37.632;2022-11-15T00:00:55;8.60;;;2.75;;
72974;SDS011;61166;54.228;37.632;2022-11-15T00:03:23;8.95;;;2.15;;
72974;SDS011;61166;54.228;37.632;2022-11-15T00:05:52;10.30;;;2.57;;
72974;SDS011;61166;54.228;37.632;2022-11-15T00:08:19;12.77;;;3.88;;
72974;SDS011;61166;54.228;37.632;2022-11-15T00:10:56;19.70;;;3.72;;
72974;SDS011;61166;54.228;37.632;2022-11-15T00:13:24;18.08;;;4.00;;
72974;SDS011;61166;54.228;37.632;2022-11-15T00:15:51;13.27;;;4.63;;
72974;SDS011;61166;54.228;37.632;2022-11-15T00:18:18;18.13;;;3.70;;
72974;SDS011;61166;54.228;37.632;2022-11-15T00:20:44;11.48;;;3.95;;
72974;SDS011;61166;54.228;37.632;2022-11-15T00:23:11;11.68;;;4.25;;
72974;SDS011;61166;54.228;37.632;2022-11-15T00:25:38;14.77;;;4.07;;
72974;SDS011;61166;54.228;37.632;2022-11-15T00:28:05;13.38;;;4.13;;
72974;SDS011;61166;54.228;37.632;2022-11-15T00:30:31;11.90;;;3.93;;
72974;SDS011;61166;54.228;37.632;2022-11-15T00:33:04;8.40;;;3.13;;
72974;SDS011;61166;54.228;37.632;2022-11-15T00:35:32;12.40;;;3.72;;
72974;SDS011;61166;54.228;37.632;2022-11-15T00:38:00;7.30;;;3.22;;
72974;SDS011;61166;54.228;37.632;2022-11-15T00:40:27;8.35;;;3.33;;
72974;SDS011;61166;54.228;37.632;2022-11-15T00:42:54;12.10;;;3.10;;
72974;SDS011;61166;54.228;37.632;2022-11-15T00:45:21;12.10;;;4.00;;
72974;SDS011;61166;54.228;37.632;2022-11-15T00:47:47;8.57;;;3.92;;
72974;SDS011;61166;54.228;37.632;2022-11-15T00:50:14;17.48;;;3.42;;
72974;SDS011;61166;54.228;37.632;2022-11-15T00:52:41;13.30;;;4.30;;
72974;SDS011;61166;54.228;37.632;2022-11-15T00:55:09;10.77;;;3.30;;
72974;SDS011;61166;54.228;37.632;2022-11-15T00:57:43;8.70;;;3.55;;
72974;SDS011;61166;54.228;37.632;2022-11-15T01:00:10;10.45;;;3.47;;
72974;SDS011;61166;54.228;37.632;2022-11-15T01:02:37;15.15;;;4.15;;
72974;SDS011;61166;54.228;37.632;2022-11-15T01:05:05;12.75;;;3.72;;
72974;SDS011;61166;54.228;37.632;2022-11-15T01:07:32;11.87;;;3.73;;
72974;SDS011;61166;54.228;37.632;2022-11-15T01:09:59;10.75;;;3.53;;
72974;SDS011;61166;54.228;37.632;2022-11-15T01:12:25;16.75;;;3.80;;
72974;SDS011;61166;54.228;37.632;2022-11-15T01:14:52;16.08;;;4.40;;
72974;SDS011;61166;54.228;37.632;2022-11-15T01:17:19;14.13;;;3.90;;
72974;SDS011;61166;54.228;37.632;2022-11-15T01:19:46;12.73;;;4.40;;
72974;SDS011;61166;54.228;37.632;2022-11-15T01:22:12;14.00;;;4.13;;
72974;SDS011;61166;54.228;37.632;2022-11-15T01:24:39;11.57;;;3.78;;
72974;SDS011;61166;54.228;37.632;2022-11-15T01:27:06;11.02;;;3.97;;
72974;SDS011;61166;54.228;37.632;2022-11-15T01:29:33;16.30;;;4.70;;
72974;SDS011;61166;54.228;37.632;2022-11-15T01:31:59;18.77;;;3.93;;
72974;SDS011;61166;54.228;37.632;2022-11-15T01:34:26;18.02;;;4.55;;
72974;SDS011;61166;54.228;37.632;2022-11-15T01:36:53;18.17;;;4.63;;
72974;SDS011;61166;54.228;37.632;2022-11-15T01:39:20;12.02;;;4.32;;
72974;SDS011;61166;54.228;37.632;2022-11-15T01:41:46;15.02;;;4.68;;
72974;SDS011;61166;54.228;37.632;2022-11-15T01:47:17;11.13;;;4.28;;
72974;SDS011;61166;54.228;37.632;2022-11-15T01:52:27;11.38;;;3.63;;
72974;SDS011;61166;54.228;37.632;2022-11-15T01:57:26;7.50;;;2.40;;
72974;SDS011;61166;54.228;37.632;2022-11-15T01:59:53;7.45;;;2.45;;
72974;SDS011;61166;54.228;37.632;2022-11-15T02:02:20;8.13;;;3.22;;
72974;SDS011;61166;54.228;37.632;2022-11-15T02:04:47;11.93;;;3.25;;
72974;SDS011;61166;54.228;37.632;2022-11-15T02:07:15;8.77;;;2.33;;
72974;SDS011;61166;54.228;37.632;2022-11-15T02:09:44;9.93;;;3.13;;
72974;SDS011;61166;54.228;37.632;2022-11-15T02:12:13;6.85;;;2.47;;
72974;SDS011;61166;54.228;37.632;2022-11-15T02:14:44;10.32;;;2.40;;
72974;SDS011;61166;54.228;37.632;2022-11-15T02:32:58;10.82;;;2.50;;
72974;SDS011;61166;54.228;37.632;2022-11-15T02:35:34;15.53;;;2.70;;
72974;SDS011;61166;54.228;37.632;2022-11-15T02:38:16;8.38;;;2.72;;
72974;SDS011;61166;54.228;37.632;2022-11-15T02:41:03;12.30;;;2.92;;
72974;SDS011;61166;54.228;37.632;2022-11-15T02:43:40;9.95;;;3.40;;
72974;SDS011;61166;54.228;37.632;2022-11-15T02:48:50;9.70;;;2.43;;
72974;SDS011;61166;54.228;37.632;2022-11-15T02:51:17;8.45;;;2.67;;
72974;SDS011;61166;54.228;37.632;2022-11-15T02:53:44;8.00;;;2.40;;
72974;SDS011;61166;54.228;37.632;2022-11-15T02:56:11;6.05;;;2.22;;
72974;SDS011;61166;54.228;37.632;2022-11-15T03:01:13;5.10;;;2.00;;
72974;SDS011;61166;54.228;37.632;2022-11-15T03:06:42;5.07;;;1.90;;
72974;SDS011;61166;54.228;37.632;2022-11-15T03:09:24;7.25;;;2.00;;
72974;SDS011;61166;54.228;37.632;2022-11-15T03:12:07;10.88;;;2.10;;
72974;SDS011;61166;54.228;37.632;2022-11-15T03:15:43;6.30;;;2.03;;
72974;SDS011;61166;54.228;37.632;2022-11-15T03:17:55;8.25;;;2.75;;
72974;SDS011;61166;54.228;37.632;2022-11-15T03:20:26;6.80;;;2.28;;
72974;SDS011;61166;54.228;37.632;2022-11-15T03:22:56;6.63;;;2.10;;
72974;SDS011;61166;54.228;37.632;2022-11-15T03:25:26;14.88;;;3.00;;
72974;SDS011;61166;54.228;37.632;2022-11-15T03:27:57;7.83;;;2.47;;
72974;SDS011;61166;54.228;37.632;2022-11-15T03:30:27;10.13;;;2.90;;
72974;SDS011;61166;54.228;37.632;2022-11-15T03:32:57;6.78;;;2.28;;
72974;SDS011;61166;54.228;37.632;2022-11-15T03:35:25;10.05;;;2.60;;
72974;SDS011;61166;54.228;37.632;2022-11-15T03:40:38;7.83;;;2.50;;
72974;SDS011;61166;54.228;37.632;2022-11-15T03:43:10;9.95;;;2.65;;
72974;SDS011;61166;54.228;37.632;2022-11-15T03:46:01;7.57;;;2.58;;
72974;SDS011;61166;54.228;37.632;2022-11-15T03:48:35;16.83;;;3.38;;
72974;SDS011;61166;54.228;37.632;2022-11-15T03:51:05;9.73;;;3.30;;
72974;SDS011;61166;54.228;37.632;2022-11-15T03:53:32;7.70;;;1.60;;
72974;SDS011;61166;54.228;37.632;2022-11-15T03:55:59;4.22;;;1.42;;
72974;SDS011;61166;54.228;37.632;2022-11-15T03:58:26;6.57;;;1.60;;
72974;SDS011;61166;54.228;37.632;2022-11-15T04:00:52;6.05;;;1.60;;
72974;SDS011;61166;54.228;37.632;2022-11-15T04:03:19;7.82;;;1.70;;
72974;SDS011;61166;54.228;37.632;2022-11-15T04:05:46;8.07;;;1.13;;
72974;SDS011;61166;54.228;37.632;2022-11-15T04:08:14;7.95;;;2.08;;
72974;SDS011;61166;54.228;37.632;2022-11-15T04:10:40;4.63;;;1.13;;
72974;SDS011;61166;54.228;37.632;2022-11-15T04:13:07;7.68;;;2.25;;
72974;SDS011;61166;54.228;37.632;2022-11-15T04:15:34;10.75;;;1.42;;
72974;SDS011;61166;54.228;37.632;2022-11-15T04:18:01;6.83;;;1.60;;
72974;SDS011;61166;54.228;37.632;2022-11-15T04:20:28;7.78;;;1.92;;
72974;SDS011;61166;54.228;37.632;2022-11-15T04:22:57;8.23;;;1.60;;
72974;SDS011;61166;54.228;37.632;2022-11-15T04:25:24;6.70;;;1.42;;
72974;SDS011;61166;54.228;37.632;2022-11-15T04:27:57;7.82;;;1.45;;
72974;SDS011;61166;54.228;37.632;2022-11-15T04:30:24;7.23;;;1.70;;
72974;SDS011;61166;54.228;37.632;2022-11-15T04:32:50;9.02;;;1.63;;
72974;SDS011;61166;54.228;37.632;2022-11-15T04:35:17;6.13;;;2.17;;
72974;SDS011;61166;54.228;37.632;2022-11-15T04:37:44;16.83;;;2.17;;
72974;SDS011;61166;54.228;37.632;2022-11-15T04:40:14;9.68;;;2.05;;
72974;SDS011;61166;54.228;37.632;2022-11-15T04:42:41;9.97;;;1.80;;
72974;SDS011;61166;54.228;37.632;2022-11-15T04:45:08;10.65;;;2.00;;
72974;SDS011;61166;54.228;37.632;2022-11-15T04:47:36;7.45;;;1.73;;
72974;SDS011;61166;54.228;37.632;2022-11-15T04:50:03;8.13;;;2.08;;
72974;SDS011;61166;54.228;37.632;2022-11-15T04:52:30;10.02;;;1.95;;
72974;SDS011;61166;54.228;37.632;2022-11-15T04:54:56;8.87;;;2.50;;
72974;SDS011;61166;54.228;37.632;2022-11-15T04:57:23;8.40;;;2.38;;
72974;SDS011;61166;54.228;37.632;2022-11-15T04:59:49;7.82;;;2.35;;
72974;SDS011;61166;54.228;37.632;2022-11-15T05:02:16;13.02;;;3.03;;
72974;SDS011;61166;54.228;37.632;2022-11-15T05:04:43;11.73;;;2.97;;
72974;SDS011;61166;54.228;37.632;2022-11-15T05:07:09;10.63;;;3.07;;
72974;SDS011;61166;54.228;37.632;2022-11-15T05:09:36;14.20;;;3.28;;
72974;SDS011;61166;54.228;37.632;2022-11-15T05:12:03;13.07;;;3.20;;
72974;SDS011;61166;54.228;37.632;2022-11-15T05:14:29;13.43;;;2.83;;
72974;SDS011;61166;54.228;37.632;2022-11-15T05:16:56;10.93;;;3.10;;
72974;SDS011;61166;54.228;37.632;2022-11-15T05:19:22;11.47;;;2.80;;
72974;SDS011;61166;54.228;37.632;2022-11-15T05:21:49;13.02;;;3.42;;
72974;SDS011;61166;54.228;37.632;2022-11-15T05:24:15;19.52;;;2.90;;
72974;SDS011;61166;54.228;37.632;2022-11-15T05:26:42;11.43;;;3.33;;
72974;SDS011;61166;54.228;37.632;2022-11-15T05:29:09;14.45;;;3.38;;
72974;SDS011;61166;54.228;37.632;2022-11-15T05:31:36;19.47;;;4.57;;
72974;SDS011;61166;54.228;37.632;2022-11-15T05:34:06;14.93;;;3.53;;
72974;SDS011;61166;54.228;37.632;2022-11-15T05:36:34;9.88;;;3.35;;
72974;SDS011;61166;54.228;37.632;2022-11-15T05:39:04;11.07;;;3.10;;
72974;SDS011;61166;54.228;37.632;2022-11-15T05:41:38;7.18;;;2.90;;
72974;SDS011;61166;54.228;37.632;2022-11-15T05:44:09;14.63;;;3.70;;
72974;SDS011;61166;54.228;37.632;2022-11-15T05:46:37;13.48;;;3.78;;
72974;SDS011;61166;54.228;37.632;2022-11-15T05:49:07;13.20;;;4.35;;
72974;SDS011;61166;54.228;37.632;2022-11-15T05:51:37;13.65;;;3.42;;
72974;SDS011;61166;54.228;37.632;2022-11-15T05:54:05;17.58;;;3.90;;
72974;SDS011;61166;54.228;37.632;2022-11-15T05:56:31;11.60;;;3.97;;
72974;SDS011;61166;54.228;37.632;2022-11-15T05:58:58;11.27;;;4.47;;
72974;SDS011;61166;54.228;37.632;2022-11-15T06:01:25;13.88;;;3.60;;
72974;SDS011;61166;54.228;37.632;2022-11-15T06:03:53;13.18;;;3.60;;
72974;SDS011;61166;54.228;37.632;2022-11-15T06:06:20;12.68;;;3.30;;
72974;SDS011;61166;54.228;37.632;2022-11-15T06:08:47;13.93;;;4.10;;
72974;SDS011;61166;54.228;37.632;2022-11-15T06:11:14;17.83;;;4.53;;
72974;SDS011;61166;54.228;37.632;2022-11-15T06:13:40;9.32;;;3.20;;
72974;SDS011;61166;54.228;37.632;2022-11-15T06:16:07;8.73;;;3.90;;
72974;SDS011;61166;54.228;37.632;2022-11-15T06:18:34;11.60;;;3.40;;
72974;SDS011;61166;54.228;37.632;2022-11-15T06:21:01;9.87;;;3.43;;
72974;SDS011;61166;54.228;37.632;2022-11-15T06:23:28;13.60;;;3.15;;
72974;SDS011;61166;54.228;37.632;2022-11-15T06:25:58;10.65;;;2.78;;
72974;SDS011;61166;54.228;37.632;2022-11-15T06:28:29;18.63;;;3.25;;
72974;SDS011;61166;54.228;37.632;2022-11-15T06:31:07;17.20;;;6.05;;
72974;SDS011;61166;54.228;37.632;2022-11-15T06:33:37;14.33;;;2.90;;
72974;SDS011;61166;54.228;37.632;2022-11-15T06:36:05;11.27;;;2.95;;
72974;SDS011;61166;54.228;37.632;2022-11-15T06:38:39;11.43;;;2.88;;
72974;SDS011;61166;54.228;37.632;2022-11-15T06:41:07;9.43;;;3.15;;
72974;SDS011;61166;54.228;37.632;2022-11-15T06:43:35;10.70;;;2.78;;
72974;SDS011;61166;54.228;37.632;2022-11-15T06:46:03;13.40;;;3.07;;
72974;SDS011;61166;54.228;37.632;2022-11-15T06:48:30;11.68;;;2.78;;
72974;SDS011;61166;54.228;37.632;2022-11-15T06:50:59;7.10;;;2.60;;
72974;SDS011;61166;54.228;37.632;2022-11-15T06:53:27;10.50;;;2.20;;
72974;SDS011;61166;54.228;37.632;2022-11-15T06:55:57;13.52;;;2.80;;
72974;SDS011;61166;54.228;37.632;2022-11-15T06:58:24;9.67;;;2.50;;
72974;SDS011;61166;54.228;37.632;2022-11-15T07:00:51;13.52;;;2.70;;
72974;SDS011;61166;54.228;37.632;2022-11-15T07:03:19;10.55;;;2.90;;
72974;SDS011;61166;54.228;37.632;2022-11-15T07:05:55;11.27;;;2.58;;
72974;SDS011;61166;54.228;37.632;2022-11-15T07:08:30;14.73;;;3.00;;
72974;SDS011;61166;54.228;37.632;2022-11-15T07:10:58;13.37;;;3.73;;
72974;SDS011;61166;54.228;37.632;2022-11-15T07:13:26;11.60;;;3.15;;
72974;SDS011;61166;54.228;37.632;2022-11-15T07:15:54;11.60;;;3.40;;
72974;SDS011;61166;54.228;37.632;2022-11-15T07:18:21;15.55;;;3.50;;
72974;SDS011;61166;54.228;37.632;2022-11-15T07:20:48;16.67;;;5.20;;
72974;SDS011;61166;54.228;37.632;2022-11-15T07:23:15;13.57;;;3.57;;
72974;SDS011;61166;54.228;37.632;2022-11-15T07:25:41;9.88;;;3.55;;
72974;SDS011;61166;54.228;37.632;2022-11-15T07:28:08;14.23;;;3.80;;
72974;SDS011;61166;54.228;37.632;2022-11-15T07:30:35;13.65;;;4.15;;
72974;SDS011;61166;54.228;37.632;2022-11-15T07:33:09;11.43;;;3.00;;
72974;SDS011;61166;54.228;37.632;2022-11-15T07:35:35;12.10;;;3.67;;
72974;SDS011;61166;54.228;37.632;2022-11-15T07:38:02;14.05;;;2.85;;
72974;SDS011;61166;54.228;37.632;2022-11-15T07:40:32;10.13;;;3.15;;
72974;SDS011;61166;54.228;37.632;2022-11-15T07:43:02;14.70;;;3.38;;
72974;SDS011;61166;54.228;37.632;2022-11-15T07:45:30;14.10;;;3.20;;
72974;SDS011;61166;54.228;37.632;2022-11-15T07:47:58;10.60;;;3.13;;
72974;SDS011;61166;54.228;37.632;2022-11-15T07:50:24;10.10;;;3.15;;
72974;SDS011;61166;54.228;37.632;2022-11-15T07:52:58;13.70;;;4.18;;
72974;SDS011;61166;54.228;37.632;2022-11-15T07:55:27;12.77;;;4.10;;
72974;SDS011;61166;54.228;37.632;2022-11-15T07:57:59;16.15;;;4.75;;
72974;SDS011;61166;54.228;37.632;2022-11-15T08:00:27;16.00;;;4.13;;
72974;SDS011;61166;54.228;37.632;2022-11-15T08:03:00;13.15;;;3.20;;
72974;SDS011;61166;54.228;37.632;2022-11-15T08:05:31;14.20;;;3.05;;
72974;SDS011;61166;54.228;37.632;2022-11-15T08:07:59;10.50;;;2.60;;
72974;SDS011;61166;54.228;37.632;2022-11-15T08:10:26;12.13;;;2.33;;
72974;SDS011;61166;54.228;37.632;2022-11-15T08:12:57;3.63;;;1.47;;
72974;SDS011;61166;54.228;37.632;2022-11-15T08:15:28;6.88;;;2.05;;
72974;SDS011;61166;54.228;37.632;2022-11-15T08:18:00;9.27;;;1.85;;
72974;SDS011;61166;54.228;37.632;2022-11-15T08:20:29;8.02;;;1.52;;
72974;SDS011;61166;54.228;37.632;2022-11-15T08:22:57;13.70;;;2.58;;
72974;SDS011;61166;54.228;37.632;2022-11-15T08:25:25;26.27;;;5.80;;
72974;SDS011;61166;54.228;37.632;2022-11-15T08:27:53;9.55;;;2.13;;
72974;SDS011;61166;54.228;37.632;2022-11-15T08:30:21;13.00;;;3.08;;
72974;SDS011;61166;54.228;37.632;2022-11-15T08:32:49;18.63;;;4.47;;
72974;SDS011;61166;54.228;37.632;2022-11-15T08:35:17;11.50;;;2.88;;
72974;SDS011;61166;54.228;37.632;2022-11-15T08:37:52;12.47;;;2.93;;
72974;SDS011;61166;54.228;37.632;2022-11-15T08:40:19;9.68;;;2.85;;
72974;SDS011;61166;54.228;37.632;2022-11-15T08:42:46;9.77;;;2.83;;
72974;SDS011;61166;54.228;37.632;2022-11-15T08:45:13;6.15;;;2.47;;
72974;SDS011;61166;54.228;37.632;2022-11-15T08:47:40;6.65;;;2.10;;
72974;SDS011;61166;54.228;37.632;2022-11-15T08:50:07;6.50;;;2.10;;
72974;SDS011;61166;54.228;37.632;2022-11-15T08:52:34;7.80;;;1.85;;
72974;SDS011;61166;54.228;37.632;2022-11-15T08:55:01;9.05;;;2.50;;
72974;SDS011;61166;54.228;37.632;2022-11-15T08:57:30;7.18;;;1.60;;
72974;SDS011;61166;54.228;37.632;2022-11-15T08:59:57;4.97;;;1.60;;
72974;SDS011;61166;54.228;37.632;2022-11-15T09:02:24;8.33;;;1.50;;
72974;SDS011;61166;54.228;37.632;2022-11-15T09:04:50;8.38;;;2.10;;
72974;SDS011;61166;54.228;37.632;2022-11-15T09:07:17;6.03;;;1.48;;
72974;SDS011;61166;54.228;37.632;2022-11-15T09:09:44;7.82;;;1.75;;
72974;SDS011;61166;54.228;37.632;2022-11-15T09:12:11;8.45;;;1.50;;
72974;SDS011;61166;54.228;37.632;2022-11-15T09:14:37;8.30;;;1.50;;
72974;SDS011;61166;54.228;37.632;2022-11-15T09:17:06;5.63;;;1.63;;
72974;SDS011;61166;54.228;37.632;2022-11-15T09:19:34;11.55;;;1.88;;
72974;SDS011;61166;54.228;37.632;2022-11-15T09:22:00;13.18;;;1.98;;
72974;SDS011;61166;54.228;37.632;2022-11-15T09:24:27;7.25;;;2.03;;
72974;SDS011;61166;54.228;37.632;2022-11-15T09:26:54;10.70;;;1.70;;
72974;SDS011;61166;54.228;37.632;2022-11-15T09:29:20;7.03;;;2.63;;
72974;SDS011;61166;54.228;37.632;2022-11-15T09:31:48;5.82;;;2.20;;
72974;SDS011;61166;54.228;37.632;2022-11-15T09:34:14;7.57;;;1.90;;
72974;SDS011;61166;54.228;37.632;2022-11-15T09:36:41;10.38;;;2.33;;
72974;SDS011;61166;54.228;37.632;2022-11-15T09:39:08;5.10;;;1.07;;
72974;SDS011;61166;54.228;37.632;2022-11-15T09:44:42;7.25;;;1.50;;
72974;SDS011;61166;54.228;37.632;2022-11-15T09:47:41;18.20;;;2.63;;
72974;SDS011;61166;54.228;37.632;2022-11-15T09:50:26;6.43;;;2.10;;
72974;SDS011;61166;54.228;37.632;2022-11-15T09:52:57;10.40;;;3.53;;
72974;SDS011;61166;54.228;37.632;2022-11-15T09:55:37;9.15;;;1.80;;
72974;SDS011;61166;54.228;37.632;2022-11-15T09:58:18;4.82;;;1.58;;
72974;SDS011;61166;54.228;37.632;2022-11-15T10:00:52;7.72;;;2.95;;
72974;SDS011;61166;54.228;37.632;2022-11-15T10:05:46;7.37;;;1.90;;
72974;SDS011;61166;54.228;37.632;2022-11-15T10:08:25;9.43;;;1.95;;
72974;SDS011;61166;54.228;37.632;2022-11-15T10:11:06;11.25;;;2.10;;
72974;SDS011;61166;54.228;37.632;2022-11-15T10:13:56;10.00;;;1.38;;
72974;SDS011;61166;54.228;37.632;2022-11-15T10:19:39;6.30;;;1.10;;
72974;SDS011;61166;54.228;37.632;2022-11-15T10:25:38;12.23;;;2.13;;
72974;SDS011;61166;54.228;37.632;2022-11-15T10:27:43;5.18;;;1.35;;
72974;SDS011;61166;54.228;37.632;2022-11-15T10:30:15;6.95;;;1.40;;
72974;SDS011;61166;54.228;37.632;2022-11-15T10:32:44;7.47;;;1.30;;
72974;SDS011;61166;54.228;37.632;2022-11-15T10:35:19;5.85;;;1.63;;
72974;SDS011;61166;54.228;37.632;2022-11-15T10:38:13;7.63;;;1.42;;
72974;SDS011;61166;54.228;37.632;2022-11-15T10:40:41;8.40;;;2.63;;
72974;SDS011;61166;54.228;37.632;2022-11-15T10:45:42;8.97;;;1.83;;
72974;SDS011;61166;54.228;37.632;2022-11-15T10:53:16;10.50;;;1.90;;
72974;SDS011;61166;54.228;37.632;2022-11-15T10:55:48;8.43;;;2.10;;
72974;SDS011;61166;54.228;37.632;2022-11-15T11:00:52;10.80;;;2.33;;
72974;SDS011;61166;54.228;37.632;2022-11-15T11:06:05;6.50;;;1.50;;
72974;SDS011;61166;54.228;37.632;2022-11-15T11:08:35;9.02;;;2.00;;
72974;SDS011;61166;54.228;37.632;2022-11-15T11:11:02;6.83;;;1.40;;
72974;SDS011;61166;54.228;37.632;2022-11-15T11:13:33;6.65;;;1.35;;
72974;SDS011;61166;54.228;37.632;2022-11-15T11:26:44;4.10;;;1.10;;
72974;SDS011;61166;54.228;37.632;2022-11-15T11:32:02;5.43;;;2.63;;
72974;SDS011;61166;54.228;37.632;2022-11-15T11:34:49;5.28;;;1.88;;
72974;SDS011;61166;54.228;37.632;2022-11-15T11:37:32;5.97;;;1.80;;
72974;SDS011;61166;54.228;37.632;2022-11-15T11:42:56;6.78;;;2.55;;
72974;SDS011;61166;54.228;37.632;2022-11-15T11:48:44;9.25;;;3.30;;
72974;SDS011;61166;54.228;37.632;2022-11-15T11:53:51;5.90;;;1.85;;
72974;SDS011;61166;54.228;37.632;2022-11-15T11:56:32;7.60;;;1.80;;
72974;SDS011;61166;54.228;37.632;2022-11-15T11:59:05;12.25;;;4.90;;
72974;SDS011;61166;54.228;37.632;2022-11-15T12:01:52;10.30;;;4.95;;
72974;SDS011;61166;54.228;37.632;2022-11-15T12:04:21;7.53;;;3.87;;
72974;SDS011;61166;54.228;37.632;2022-11-15T12:12:19;12.07;;;3.22;;
72974;SDS011;61166;54.228;37.632;2022-11-15T12:14:53;7.03;;;3.05;;
72974;SDS011;61166;54.228;37.632;2022-11-15T12:17:27;8.27;;;2.63;;
72974;SDS011;61166;54.228;37.632;2022-11-15T12:19:56;7.55;;;2.88;;
72974;SDS011;61166;54.228;37.632;2022-11-15T12:24:57;10.23;;;3.60;;
72974;SDS011;61166;54.228;37.632;2022-11-15T12:27:34;13.35;;;4.88;;
72974;SDS011;61166;54.228;37.632;2022-11-15T12:30:10;8.33;;;2.20;;
72974;SDS011;61166;54.228;37.632;2022-11-15T12:32:39;6.80;;;2.28;;
72974;SDS011;61166;54.228;37.632;2022-11-15T12:35:32;5.50;;;1.90;;
72974;SDS011;61166;54.228;37.632;2022-11-15T12:38:01;7.95;;;2.10;;
72974;SDS011;61166;54.228;37.632;2022-11-15T12:43:04;8.00;;;2.30;;
72974;SDS011;61166;54.228;37.632;2022-11-15T12:48:44;8.70;;;3.47;;
72974;SDS011;61166;54.228;37.632;2022-11-15T12:50:56;10.75;;;5.40;;
72974;SDS011;61166;54.228;37.632;2022-11-15T13:11:57;14.20;;;4.85;;
72974;SDS011;61166;54.228;37.632;2022-11-15T13:17:21;10.43;;;4.60;;
72974;SDS011;61166;54.228;37.632;2022-11-15T13:20:00;12.48;;;4.90;;
72974;SDS011;61166;54.228;37.632;2022-11-15T13:22:39;11.70;;;5.63;;
72974;SDS011;61166;54.228;37.632;2022-11-15T13:28:07;9.27;;;3.55;;
72974;SDS011;61166;54.228;37.632;2022-11-15T13:30:36;8.00;;;1.33;;
72974;SDS011;61166;54.228;37.632;2022-11-15T13:33:10;8.23;;;3.10;;
72974;SDS011;61166;54.228;37.632;2022-11-15T13:35:48;5.70;;;1.87;;
72974;SDS011;61166;54.228;37.632;2022-11-15T13:38:19;6.88;;;2.53;;
72974;SDS011;61166;54.228;37.632;2022-11-15T13:40:45;5.65;;;2.58;;
72974;SDS011;61166;54.228;37.632;2022-11-15T13:43:34;6.70;;;2.22;;
72974;SDS011;61166;54.228;37.632;2022-11-15T13:48:43;4.87;;;1.53;;
72974;SDS011;61166;54.228;37.632;2022-11-15T13:53:45;12.18;;;3.22;;
72974;SDS011;61166;54.228;37.632;2022-11-15T13:56:17;5.38;;;1.80;;
72974;SDS011;61166;54.228;37.632;2022-11-15T13:58:45;7.30;;;2.47;;
72974;SDS011;61166;54.228;37.632;2022-11-15T14:01:16;6.60;;;2.83;;
72974;SDS011;61166;54.228;37.632;2022-11-15T14:03:51;7.93;;;2.80;;
72974;SDS011;61166;54.228;37.632;2022-11-15T14:06:24;6.28;;;2.78;;
72974;SDS011;61166;54.228;37.632;2022-11-15T14:11:35;7.53;;;3.63;;
72974;SDS011;61166;54.228;37.632;2022-11-15T14:14:05;5.80;;;2.00;;
72974;SDS011;61166;54.228;37.632;2022-11-15T14:16:40;7.32;;;2.78;;
72974;SDS011;61166;54.228;37.632;2022-11-15T14:19:12;12.27;;;3.65;;
72974;SDS011;61166;54.228;37.632;2022-11-15T14:24:42;9.95;;;4.18;;
72974;SDS011;61166;54.228;37.632;2022-11-15T14:27:21;13.23;;;4.40;;
72974;SDS011;61166;54.228;37.632;2022-11-15T14:29:52;13.27;;;3.58;;
72974;SDS011;61166;54.228;37.632;2022-11-15T14:32:21;15.32;;;4.88;;
72974;SDS011;61166;54.228;37.632;2022-11-15T14:34:53;13.93;;;4.32;;
72974;SDS011;61166;54.228;37.632;2022-11-15T14:39:58;15.53;;;4.03;;
72974;SDS011;61166;54.228;37.632;2022-11-15T14:42:25;10.65;;;2.92;;
72974;SDS011;61166;54.228;37.632;2022-11-15T14:44:51;6.45;;;2.22;;
72974;SDS011;61166;54.228;37.632;2022-11-15T14:47:18;11.88;;;4.05;;
72974;SDS011;61166;54.228;37.632;2022-11-15T14:49:46;6.60;;;1.92;;
72974;SDS011;61166;54.228;37.632;2022-11-15T14:52:47;7.03;;;3.17;;
72974;SDS011;61166;54.228;37.632;2022-11-15T14:55:48;8.02;;;2.80;;
72974;SDS011;61166;54.228;37.632;2022-11-15T14:58:00;11.88;;;4.15;;
72974;SDS011;61166;54.228;37.632;2022-11-15T15:00:27;8.38;;;3.15;;
72974;SDS011;61166;54.228;37.632;2022-11-15T15:03:00;8.35;;;2.90;;
72974;SDS011;61166;54.228;37.632;2022-11-15T15:05:32;7.67;;;2.40;;
72974;SDS011;61166;54.228;37.632;2022-11-15T15:08:00;9.45;;;2.60;;
72974;SDS011;61166;54.228;37.632;2022-11-15T15:10:31;7.18;;;1.95;;
72974;SDS011;61166;54.228;37.632;2022-11-15T15:13:41;8.57;;;3.08;;
72974;SDS011;61166;54.228;37.632;2022-11-15T15:16:00;9.07;;;2.53;;
72974;SDS011;61166;54.228;37.632;2022-11-15T15:18:27;4.63;;;1.90;;
72974;SDS011;61166;54.228;37.632;2022-11-15T15:20:55;10.20;;;2.95;;
72974;SDS011;61166;54.228;37.632;2022-11-15T15:23:23;9.73;;;2.70;;
72974;SDS011;61166;54.228;37.632;2022-11-15T15:25:50;7.25;;;2.38;;
72974;SDS011;61166;54.228;37.632;2022-11-15T15:28:16;9.88;;;1.75;;
72974;SDS011;61166;54.228;37.632;2022-11-15T15:30:43;8.63;;;2.10;;
72974;SDS011;61166;54.228;37.632;2022-11-15T15:33:09;6.43;;;1.83;;
72974;SDS011;61166;54.228;37.632;2022-11-15T15:35:36;7.97;;;3.10;;
72974;SDS011;61166;54.228;37.632;2022-11-15T15:38:03;12.43;;;3.30;;
72974;SDS011;61166;54.228;37.632;2022-11-15T15:40:31;5.95;;;1.55;;
72974;SDS011;61166;54.228;37.632;2022-11-15T15:42:59;11.13;;;2.30;;
72974;SDS011;61166;54.228;37.632;2022-11-15T15:45:25;7.95;;;2.50;;
72974;SDS011;61166;54.228;37.632;2022-11-15T15:47:53;7.10;;;2.15;;
72974;SDS011;61166;54.228;37.632;2022-11-15T15:50:21;4.93;;;2.25;;
72974;SDS011;61166;54.228;37.632;2022-11-15T15:52:50;10.85;;;3.08;;
72974;SDS011;61166;54.228;37.632;2022-11-15T15:55:18;9.73;;;3.00;;
72974;SDS011;61166;54.228;37.632;2022-11-15T15:57:45;15.38;;;4.35;;
72974;SDS011;61166;54.228;37.632;2022-11-15T16:00:12;16.02;;;4.47;;
72974;SDS011;61166;54.228;37.632;2022-11-15T16:02:39;9.15;;;2.55;;
72974;SDS011;61166;54.228;37.632;2022-11-15T16:05:07;12.02;;;2.97;;
72974;SDS011;61166;54.228;37.632;2022-11-15T16:07:35;9.43;;;3.20;;
72974;SDS011;61166;54.228;37.632;2022-11-15T16:10:13;8.90;;;3.28;;
72974;SDS011;61166;54.228;37.632;2022-11-15T16:12:51;6.30;;;2.88;;
72974;SDS011;61166;54.228;37.632;2022-11-15T16:15:19;8.73;;;3.47;;
72974;SDS011;61166;54.228;37.632;2022-11-15T16:17:54;9.05;;;2.50;;
72974;SDS011;61166;54.228;37.632;2022-11-15T16:22:57;9.43;;;3.85;;
72974;SDS011;61166;54.228;37.632;2022-11-15T16:25:40;6.00;;;2.28;;
72974;SDS011;61166;54.228;37.632;2022-11-15T16:28:14;9.75;;;2.60;;
72974;SDS011;61166;54.228;37.632;2022-11-15T16:30:46;13.32;;;3.53;;
72974;SDS011;61166;54.228;37.632;2022-11-15T16:33:21;7.60;;;2.47;;
72974;SDS011;61166;54.228;37.632;2022-11-15T16:35:48;10.57;;;3.85;;
72974;SDS011;61166;54.228;37.632;2022-11-15T16:38:15;8.68;;;3.50;;
72974;SDS011;61166;54.228;37.632;2022-11-15T16:40:43;12.45;;;3.58;;
72974;SDS011;61166;54.228;37.632;2022-11-15T16:43:10;6.68;;;2.10;;
72974;SDS011;61166;54.228;37.632;2022-11-15T16:45:37;14.93;;;3.50;;
72974;SDS011;61166;54.228;37.632;2022-11-15T16:48:04;10.75;;;2.97;;
72974;SDS011;61166;54.228;37.632;2022-11-15T16:50:31;9.57;;;3.13;;
72974;SDS011;61166;54.228;37.632;2022-11-15T16:52:59;9.20;;;3.60;;
72974;SDS011;61166;54.228;37.632;2022-11-15T16:55:27;12.52;;;3.03;;
72974;SDS011;61166;54.228;37.632;2022-11-15T16:57:55;9.77;;;3.60;;
72974;SDS011;61166;54.228;37.632;2022-11-15T17:00:22;9.68;;;3.97;;